createdAt,value
2018-11-12T00:00:02.252Z,100890.20
2018-11-12T00:02:39.632Z,100845.22
2018-11-12T00:05:16.819Z,100859.80
2018-11-12T00:07:55.901Z,100860.48
2018-11-12T00:10:34.360Z,100860.25
2018-11-12T00:13:10.926Z,100860.56
2018-11-12T00:15:46.954Z,100870.38
2018-11-12T00:18:24.742Z,100912.14
2018-11-12T00:21:00.890Z,100747.52
2018-11-12T00:23:36.906Z,100733.52
2018-11-12T00:26:13.480Z,100727.20
2018-11-12T00:28:49.905Z,100736.22
2018-11-12T00:31:26.817Z,100733.66
2018-11-12T00:34:03.851Z,100735.93
2018-11-12T00:36:39.709Z,100732.27
2018-11-12T00:39:17.796Z,100749.55
2018-11-12T00:41:55.222Z,100933.67
2018-11-12T00:44:31.382Z,100964.27
2018-11-12T00:47:09.762Z,100905.78
2018-11-12T00:49:45.942Z,100964.83
2018-11-12T00:52:27.710Z,100665.73
2018-11-12T00:55:04.103Z,100649.90
2018-11-12T00:57:40.344Z,100643.77
2018-11-12T01:00:21.251Z,100650.91
2018-11-12T01:02:58.284Z,100661.08
2018-11-12T01:05:35.140Z,100640.59
2018-11-12T01:08:11.512Z,100644.40
2018-11-12T01:10:48.208Z,100659.18
2018-11-12T01:13:25.329Z,100661.31
2018-11-12T01:16:01.488Z,100666.88
2018-11-12T01:18:38.041Z,100669.73
2018-11-12T01:21:14.315Z,100673.14
2018-11-12T01:23:51.434Z,100668.55
2018-11-12T01:26:28.657Z,100666.15
2018-11-12T01:29:07.790Z,100670.36
2018-11-12T01:31:45.833Z,100664.77
2018-11-12T01:34:23.966Z,100652.63
2018-11-12T01:37:01.063Z,100651.34
2018-11-12T01:39:36.635Z,100644.33
2018-11-12T01:42:14.772Z,100647.31
2018-11-12T01:44:50.504Z,100652.09
2018-11-12T01:47:27.788Z,100649.92
2018-11-12T01:50:05.276Z,100647.23
2018-11-12T01:52:44.191Z,100647.86
2018-11-12T01:55:22.529Z,100651.02
2018-11-12T01:58:00.434Z,100654.86
2018-11-12T02:00:36.902Z,100657.83
2018-11-12T02:03:14.386Z,100658.20
2018-11-12T02:05:53.251Z,100665.05
2018-11-12T02:08:30.276Z,100672.42
2018-11-12T02:11:06.418Z,100666.77
2018-11-12T02:13:42.740Z,100668.95
2018-11-12T02:16:27.809Z,100672.56
2018-11-12T02:19:04.223Z,100678.70
2018-11-12T02:21:40.132Z,100677.19
2018-11-12T02:24:16.378Z,100690.64
2018-11-12T02:26:53.036Z,100691.28
2018-11-12T02:29:30.216Z,100696.73
2018-11-12T02:32:06.463Z,100695.73
2018-11-12T02:34:44.585Z,100705.22
2018-11-12T02:37:23.735Z,100709.71
2018-11-12T02:40:01.932Z,100707.02
2018-11-12T02:42:38.330Z,100711.23
2018-11-12T02:45:17.733Z,100715.59
2018-11-12T02:47:55.856Z,100710.08
2018-11-12T02:50:34.534Z,100707.50
2018-11-12T02:53:13.027Z,100708.20
2018-11-12T02:55:50.858Z,100711.07
2018-11-12T02:58:28.078Z,100710.61
2018-11-12T03:01:06.568Z,100715.11
2018-11-12T03:03:44.841Z,100718.80
2018-11-12T03:06:22.191Z,100717.30
2018-11-12T03:08:58.444Z,100722.48
2018-11-12T03:11:36.306Z,100732.47
2018-11-12T03:14:14.610Z,100730.97
2018-11-12T03:16:51.200Z,100739.98
2018-11-12T03:19:28.311Z,100742.59
2018-11-12T03:22:06.295Z,100743.48
2018-11-12T03:24:43.634Z,100748.48
2018-11-12T03:27:24.439Z,100744.20
2018-11-12T03:30:04.135Z,100746.65
2018-11-12T03:32:41.480Z,100749.61
2018-11-12T03:35:18.450Z,100756.23
2018-11-12T03:37:54.294Z,100753.55
2018-11-12T03:40:31.827Z,100764.67
2018-11-12T03:43:09.922Z,100765.14
2018-11-12T03:45:46.825Z,100763.95
2018-11-12T03:48:24.486Z,100769.78
2018-11-12T03:51:01.376Z,100767.28
2018-11-12T03:54:04.010Z,100762.45
2018-11-12T03:56:42.246Z,100764.16
2018-11-12T03:59:19.142Z,100766.47
2018-11-12T04:01:55.988Z,100760.66
2018-11-12T04:04:33.243Z,100760.85
2018-11-12T04:07:13.454Z,100770.84
2018-11-12T04:09:50.203Z,100771.03
2018-11-12T04:12:28.613Z,100775.34
2018-11-12T04:15:06.147Z,100779.33
2018-11-12T04:17:42.385Z,100786.82
2018-11-12T04:20:20.122Z,100790.30
2018-11-12T04:22:59.544Z,100800.75
2018-11-12T04:25:40.013Z,100809.22
2018-11-12T04:28:18.483Z,100819.34
2018-11-12T04:30:55.521Z,100822.66
2018-11-12T04:33:33.887Z,100817.87
2018-11-12T04:36:10.194Z,100825.01
2018-11-12T04:38:52.325Z,100834.81
2018-11-12T04:41:28.535Z,100846.52
2018-11-12T04:44:04.894Z,100857.87
2018-11-12T04:46:45.033Z,100860.20
2018-11-12T04:49:22.831Z,100866.34
2018-11-12T04:52:00.155Z,100863.44
2018-11-12T04:54:38.320Z,100867.92
2018-11-12T04:57:15.233Z,100855.48
2018-11-12T04:59:53.250Z,100857.75
2018-11-12T05:02:30.773Z,100860.56
2018-11-12T05:05:17.897Z,100871.36
2018-11-12T05:07:54.519Z,100860.37
2018-11-12T05:10:31.108Z,100874.31
2018-11-12T05:13:08.270Z,100873.34
2018-11-12T05:15:45.249Z,100878.06
2018-11-12T05:18:22.550Z,100871.91
2018-11-12T05:20:58.583Z,100875.36
2018-11-12T05:23:35.065Z,100881.14
2018-11-12T05:26:16.026Z,100888.67
2018-11-12T05:28:53.524Z,100884.16
2018-11-12T05:31:31.454Z,100886.05
2018-11-12T05:34:08.867Z,100891.89
2018-11-12T05:36:46.438Z,100896.23
2018-11-12T05:39:22.635Z,100890.75
2018-11-12T05:42:00.158Z,100889.56
2018-11-12T05:44:37.298Z,100895.36
2018-11-12T05:47:14.077Z,100896.86
2018-11-12T05:49:51.749Z,100896.61
2018-11-12T05:52:32.707Z,100904.23
2018-11-12T05:55:10.218Z,100904.71
2018-11-12T05:57:46.079Z,100906.81
2018-11-12T06:00:26.538Z,100905.09
2018-11-12T06:03:03.873Z,100899.81
2018-11-12T06:05:41.885Z,100906.78
2018-11-12T06:08:19.170Z,100900.88
2018-11-12T06:10:57.092Z,100914.20
2018-11-12T06:13:34.521Z,100934.42
2018-11-12T06:16:12.153Z,100940.26
2018-11-12T06:18:51.855Z,100951.34
2018-11-12T06:21:29.302Z,100963.24
2018-11-12T06:24:05.528Z,100951.22
2018-11-12T06:26:42.549Z,100943.18
2018-11-12T06:29:19.468Z,100946.30
2018-11-12T06:31:57.989Z,100948.92
2018-11-12T06:34:38.405Z,101229.80
2018-11-12T06:37:15.304Z,101637.13
2018-11-12T06:39:53.783Z,101783.91
2018-11-12T06:42:33.417Z,101824.42
2018-11-12T06:45:12.598Z,102128.77
2018-11-12T06:55:40.029Z,102028.83
2018-11-12T06:58:21.433Z,102031.78
2018-11-12T07:01:00.614Z,102030.22
2018-11-12T07:15:55.351Z,102049.11
2018-11-12T07:18:30.993Z,102040.82
2018-11-12T07:21:07.075Z,102043.06
2018-11-12T07:23:43.489Z,102040.51
2018-11-12T07:26:20.262Z,102043.21
2018-11-12T07:28:56.654Z,102051.92
2018-11-12T07:31:33.209Z,102039.72
2018-11-12T07:34:09.090Z,102043.19
2018-11-12T07:36:46.410Z,102041.80
2018-11-12T07:39:22.784Z,102037.23
2018-11-12T07:41:59.189Z,102043.01
2018-11-12T07:44:35.303Z,102040.77
2018-11-12T07:47:11.701Z,102043.36
2018-11-12T07:49:48.169Z,102051.09
2018-11-12T07:52:24.089Z,102052.02
2018-11-12T07:55:01.498Z,102057.42
2018-11-12T07:57:38.077Z,102058.48
2018-11-12T08:00:19.069Z,102058.67
2018-11-12T08:03:12.183Z,102061.92
2018-11-12T08:05:48.362Z,102064.81
2018-11-12T08:08:24.885Z,102070.97
2018-11-12T08:11:00.878Z,102064.11
2018-11-12T08:13:36.842Z,102054.60
2018-11-12T08:16:13.047Z,102064.45
2018-11-12T08:18:49.006Z,102061.77
2018-11-12T08:22:51.836Z,102065.93
2018-11-12T08:25:28.266Z,102069.57
2018-11-12T08:28:04.425Z,102067.75
2018-11-12T08:30:41.275Z,102069.09
2018-11-12T08:33:17.255Z,102071.61
2018-11-12T08:35:53.289Z,102075.50
2018-11-12T08:38:30.037Z,102072.83
2018-11-12T08:41:06.113Z,102074.65
2018-11-12T08:43:43.012Z,102063.95
2018-11-12T08:46:19.078Z,102064.11
2018-11-12T08:48:54.865Z,102068.94
2018-11-12T08:51:31.008Z,102071.91
2018-11-12T08:54:07.042Z,102073.58
2018-11-12T08:56:43.295Z,102072.88
2018-11-12T08:59:19.592Z,102074.85
2018-11-12T09:01:56.102Z,102081.20
2018-11-12T09:04:32.082Z,102089.22
2018-11-12T09:07:08.617Z,102093.01
2018-11-12T09:09:44.970Z,102090.34
2018-11-12T09:12:21.260Z,102086.17
2018-11-12T09:14:59.090Z,102087.36
2018-11-12T09:17:35.273Z,102082.88
2018-11-12T09:20:13.014Z,102082.02
2018-11-12T09:22:49.011Z,102080.20
2018-11-12T09:25:26.087Z,102082.88
2018-11-12T09:28:02.468Z,102081.05
2018-11-12T09:30:38.997Z,102089.55
2018-11-12T09:33:15.303Z,102081.53
2018-11-12T09:35:51.425Z,102082.02
2018-11-12T09:38:27.270Z,102087.87
2018-11-12T09:41:03.260Z,102093.22
2018-11-12T09:43:39.091Z,102095.16
2018-11-12T09:46:15.085Z,102094.67
2018-11-12T09:48:51.308Z,102088.15
2018-11-12T09:51:27.277Z,102087.30
2018-11-12T09:54:03.308Z,102085.81
2018-11-12T09:56:39.089Z,102077.19
2018-11-12T09:59:15.115Z,102080.83
2018-11-12T10:01:51.527Z,102080.83
2018-11-12T10:04:28.014Z,102073.79
2018-11-12T10:07:04.984Z,102073.79
2018-11-12T10:09:42.433Z,102076.83
2018-11-12T10:12:20.237Z,102073.30
2018-11-12T10:14:56.640Z,102080.13
2018-11-12T10:17:33.878Z,102086.45
2018-11-12T10:20:06.953Z,102089.42
2018-11-12T10:22:43.433Z,102096.58
2018-11-12T10:25:20.310Z,102101.56
2018-11-12T10:27:56.258Z,102098.82
2018-11-12T10:30:32.089Z,102097.27
2018-11-12T10:33:08.411Z,102095.59
2018-11-12T10:35:44.846Z,102092.70
2018-11-12T10:38:20.966Z,102096.34
2018-11-12T10:40:57.509Z,102098.20
2018-11-12T10:43:33.832Z,102099.53
2018-11-12T10:46:10.834Z,102101.84
2018-11-12T10:48:47.082Z,102100.66
2018-11-12T10:51:23.131Z,102095.80
2018-11-12T10:53:59.251Z,102101.28
2018-11-12T10:56:35.282Z,102100.21
2018-11-12T10:59:11.696Z,102101.81
2018-11-12T11:01:51.861Z,102092.13
2018-11-12T11:04:31.672Z,102091.77
2018-11-12T11:07:07.981Z,102087.76
2018-11-12T11:09:44.077Z,102087.42
2018-11-12T11:12:20.078Z,102084.38
2018-11-12T11:14:56.254Z,102096.28
2018-11-12T11:17:32.077Z,102094.09
2018-11-12T11:20:08.052Z,102091.91
2018-11-12T11:22:44.042Z,102086.35
2018-11-12T11:25:20.077Z,102083.34
2018-11-12T11:27:56.205Z,102092.17
2018-11-12T11:30:32.082Z,102096.33
2018-11-12T11:33:08.320Z,102093.32
2018-11-12T11:35:44.629Z,102096.95
2018-11-12T11:38:20.890Z,102098.78
2018-11-12T11:40:56.966Z,102096.11
2018-11-12T11:43:33.254Z,102096.48
2018-11-12T11:46:09.373Z,102091.63
2018-11-12T11:48:45.731Z,102093.32
2018-11-12T11:51:21.831Z,102088.47
2018-11-12T11:53:57.838Z,102092.47
2018-11-12T11:56:34.307Z,102088.47
2018-11-12T11:59:10.489Z,102090.77
2018-11-12T12:01:46.931Z,102090.77
2018-11-12T12:04:23.255Z,102098.44
2018-11-12T12:06:59.278Z,102097.44
2018-11-12T12:09:35.445Z,102100.26
2018-11-12T12:12:11.262Z,102106.57
2018-11-12T12:14:47.295Z,102110.35
2018-11-12T12:17:23.292Z,102114.47
2018-11-12T12:19:59.081Z,102118.63
2018-11-12T12:22:34.688Z,102124.11
2018-11-12T12:25:13.835Z,102127.11
2018-11-12T12:27:50.437Z,102131.97
2018-11-12T12:30:28.069Z,102135.27
2018-11-12T12:33:04.258Z,102136.23
2018-11-12T12:35:40.329Z,102139.42
2018-11-12T12:38:16.253Z,102142.09
2018-11-12T12:40:53.070Z,102147.20
2018-11-12T12:43:29.523Z,102151.69
2018-11-12T12:46:05.794Z,102154.99
2018-11-12T12:48:42.488Z,102151.95
2018-11-12T12:51:19.153Z,102158.63
2018-11-12T12:53:55.022Z,102159.63
2018-11-12T12:56:31.263Z,102155.39
2018-11-12T12:59:07.640Z,102160.73
2018-11-12T13:01:43.637Z,102162.33
2018-11-12T13:04:20.098Z,102156.98
2018-11-12T13:06:56.871Z,102158.80
2018-11-12T13:09:33.099Z,102165.62
2018-11-12T13:12:09.314Z,102158.86
2018-11-12T13:14:45.373Z,102165.05
2018-11-12T13:17:22.114Z,102167.24
2018-11-12T13:19:58.461Z,102165.91
2018-11-12T13:22:34.412Z,102169.54
2018-11-12T13:25:11.739Z,102177.06
2018-11-12T13:27:48.429Z,102183.59
2018-11-12T13:30:25.640Z,102183.25
2018-11-12T13:33:01.660Z,102183.73
2018-11-12T13:35:37.799Z,102172.69
2018-11-12T13:38:13.987Z,102170.39
2018-11-12T13:40:50.077Z,102178.41
2018-11-12T13:43:26.090Z,102177.92
2018-11-12T13:46:01.986Z,102187.85
2018-11-12T13:48:38.208Z,102180.47
2018-11-12T13:51:14.462Z,102183.99
2018-11-12T13:53:50.426Z,102186.92
2018-11-12T13:56:26.082Z,102192.39
2018-11-12T13:59:01.997Z,102195.92
2018-11-12T14:01:38.074Z,102195.21
2018-11-12T14:04:14.082Z,102188.53
2018-11-12T14:06:50.082Z,102194.36
2018-11-12T14:09:26.058Z,102197.50
2018-11-12T14:12:01.990Z,102199.35
2018-11-12T14:14:38.086Z,102206.98
2018-11-12T14:17:14.415Z,102206.98
2018-11-12T14:19:50.254Z,102215.13
2018-11-12T14:22:26.420Z,102213.42
2018-11-12T14:25:02.634Z,102204.94
2018-11-12T14:27:39.061Z,102210.91
2018-11-12T14:30:19.987Z,102216.72
2018-11-12T14:32:56.277Z,102219.25
2018-11-12T14:35:32.922Z,102218.20
2018-11-12T14:40:29.043Z,102220.58
2018-11-12T14:43:05.089Z,102221.34
2018-11-12T14:45:41.086Z,102222.93
2018-11-12T14:48:17.095Z,102221.88
2018-11-12T14:50:53.134Z,102223.69
2018-11-12T14:53:29.209Z,102226.36
2018-11-12T14:56:05.301Z,102237.66
2018-11-12T14:58:41.325Z,102242.28
2018-11-12T15:01:17.258Z,102248.71
2018-11-12T15:03:54.054Z,102250.53
2018-11-12T15:06:30.082Z,102256.72
2018-11-12T15:09:06.558Z,102256.86
2018-11-12T15:13:09.085Z,102260.39
2018-11-12T15:15:45.390Z,102262.06
2018-11-12T15:18:21.841Z,102271.30
2018-11-12T15:20:58.284Z,102267.30
2018-11-12T15:23:34.444Z,102267.16
2018-11-12T15:26:10.909Z,102264.34
2018-11-12T15:28:44.816Z,102272.01
2018-11-12T15:31:20.708Z,102274.20
2018-11-12T15:33:56.634Z,102276.35
2018-11-12T15:36:32.708Z,102285.20
2018-11-12T15:39:11.254Z,102283.16
2018-11-12T15:41:47.096Z,102285.34
2018-11-12T15:44:23.289Z,102285.83
2018-11-12T15:46:59.257Z,102288.97
2018-11-12T15:49:35.424Z,102297.11
2018-11-12T15:52:11.254Z,102296.74
2018-11-12T15:54:47.267Z,102301.25
2018-11-12T15:57:23.596Z,102305.26
2018-11-12T15:59:59.777Z,102309.36
2018-11-12T16:02:35.755Z,102311.07
2018-11-12T16:05:12.577Z,102308.98
2018-11-12T16:07:48.910Z,102311.07
2018-11-12T16:10:25.485Z,102311.66
2018-11-12T16:13:01.911Z,102315.17
2018-11-12T16:15:38.087Z,102319.77
2018-11-12T16:18:14.974Z,102323.77
2018-11-12T16:20:51.059Z,102327.18
2018-11-12T16:23:27.843Z,102329.37
2018-11-12T16:26:03.910Z,102332.03
2018-11-12T16:28:40.256Z,102331.08
2018-11-12T16:31:16.225Z,102333.27
2018-11-12T16:33:51.925Z,102330.59
2018-11-12T16:36:27.874Z,102328.27
2018-11-12T16:39:04.274Z,102334.94
2018-11-12T16:41:40.500Z,102332.27
2018-11-12T16:44:16.730Z,102342.33
2018-11-12T16:46:53.057Z,102343.55
2018-11-12T16:52:23.133Z,102365.05
2018-11-12T16:54:59.324Z,102363.96
2018-11-12T16:57:36.266Z,102361.97
2018-11-12T17:00:15.202Z,102365.05
2018-11-12T17:02:51.509Z,102364.81
2018-11-12T17:05:28.409Z,102354.57
2018-11-12T17:08:05.123Z,102365.72
2018-11-12T17:10:39.295Z,102367.55
2018-11-12T17:13:16.280Z,102374.22
2018-11-12T17:15:52.129Z,102375.13
2018-11-12T17:18:28.554Z,102362.73
2018-11-12T17:21:05.136Z,102369.53
2018-11-12T17:23:41.511Z,102362.55
2018-11-12T17:26:18.144Z,102361.50
2018-11-12T17:28:55.549Z,102362.58
2018-11-12T17:31:32.125Z,102360.86
2018-11-12T17:34:09.168Z,102370.22
2018-11-12T17:36:45.416Z,102365.84
2018-11-12T17:39:22.251Z,102366.79
2018-11-12T17:41:58.354Z,102368.02
2018-11-12T17:44:34.506Z,102370.52
2018-11-12T17:47:10.542Z,102370.22
2018-11-12T17:49:47.269Z,102369.00
2018-11-12T17:52:23.256Z,102377.09
2018-11-12T17:54:59.337Z,102374.82
2018-11-12T17:57:35.480Z,102373.73
2018-11-12T18:00:28.819Z,102379.22
2018-11-12T18:03:05.189Z,102377.41
2018-11-12T18:05:41.500Z,102383.73
2018-11-12T18:08:18.140Z,102385.00
2018-11-12T18:10:54.861Z,102387.61
2018-11-12T18:15:06.888Z,102382.37
2018-11-12T18:17:43.136Z,102384.88
2018-11-12T18:20:26.052Z,102378.53
2018-11-12T18:23:02.563Z,102377.52
2018-11-12T18:25:39.081Z,102380.50
2018-11-12T18:28:15.789Z,102381.73
2018-11-12T18:30:52.102Z,102374.64
2018-11-12T18:33:29.279Z,102380.50
2018-11-12T18:40:14.281Z,102382.39
2018-11-12T18:42:50.326Z,102378.09
2018-11-12T18:45:27.839Z,102379.16
2018-11-12T18:48:06.247Z,102384.17
2018-11-12T18:50:42.999Z,102378.97
2018-11-12T18:53:19.235Z,102379.52
2018-11-12T18:55:53.280Z,102378.74
2018-11-12T18:58:29.902Z,102374.38
2018-11-12T19:01:06.127Z,102378.61
2018-11-12T19:03:42.248Z,102381.06
2018-11-12T19:08:29.504Z,102380.70
2018-11-12T19:11:05.302Z,102371.06
2018-11-12T19:13:39.820Z,102373.43
2018-11-12T19:16:16.128Z,102369.75
2018-11-12T19:18:52.321Z,102357.23
2018-11-12T19:21:28.262Z,102350.08
2018-11-12T19:24:02.004Z,102355.67
2018-11-12T19:26:37.849Z,102352.75
2018-11-12T19:32:49.252Z,102334.17
2018-11-12T19:35:26.335Z,102344.14
2018-11-12T19:38:02.101Z,102338.91
2018-11-12T19:40:39.278Z,102332.44
2018-11-12T19:43:15.818Z,102332.61
2018-11-12T19:45:52.504Z,102326.48
2018-11-12T19:48:28.559Z,102326.31
2018-11-12T19:51:05.293Z,102318.03
2018-11-12T19:53:41.246Z,102311.91
2018-11-12T19:56:17.341Z,102312.73
2018-11-12T19:58:53.373Z,102312.05
2018-11-12T20:01:29.084Z,102309.57
2018-11-12T20:07:22.467Z,102293.39
2018-11-12T20:09:58.012Z,102296.47
2018-11-12T20:12:33.769Z,102293.99
2018-11-12T20:15:11.272Z,102291.97
2018-11-12T20:17:48.107Z,102286.87
2018-11-12T20:20:30.721Z,102285.05
2018-11-12T20:23:06.844Z,102284.02
2018-11-12T20:25:43.129Z,102273.87
2018-11-12T20:28:19.334Z,102280.83
2018-11-12T20:30:55.175Z,102272.38
2018-11-12T20:33:31.141Z,102269.41
2018-11-12T20:36:06.852Z,102266.70
2018-11-12T20:40:48.337Z,102269.27
2018-11-12T20:43:24.254Z,102264.39
2018-11-12T20:47:54.354Z,102254.76
2018-11-12T20:50:30.165Z,102263.15
2018-11-12T20:53:06.125Z,102261.42
2018-11-12T20:55:42.294Z,102248.41
2018-11-12T20:58:18.353Z,102250.92
2018-11-12T21:00:52.472Z,102246.27
2018-11-12T21:03:26.291Z,102243.80
2018-11-12T21:06:02.251Z,102240.34
2018-11-12T21:08:38.081Z,102243.09
2018-11-12T21:11:11.974Z,102238.88
2018-11-12T21:13:48.285Z,102237.42
2018-11-12T21:16:24.233Z,102237.89
2018-11-12T21:18:59.990Z,102232.42
2018-11-12T21:21:35.848Z,102232.48
2018-11-12T21:24:11.746Z,102238.16
2018-11-12T21:26:47.433Z,102241.05
2018-11-12T21:29:22.790Z,102233.96
2018-11-12T21:31:58.269Z,102232.49
2018-11-12T21:34:34.093Z,102228.41
2018-11-12T21:37:09.785Z,102227.84
2018-11-12T21:39:45.855Z,102229.61
2018-11-12T21:42:21.720Z,102227.98
2018-11-12T21:44:57.488Z,102228.05
2018-11-12T21:47:31.214Z,102226.53
2018-11-12T21:50:07.159Z,102224.09
2018-11-12T21:52:43.077Z,102223.84
2018-11-12T21:55:18.997Z,102224.61
2018-11-12T21:57:54.820Z,102220.73
2018-11-12T22:00:31.068Z,102222.86
2018-11-12T22:03:07.309Z,102223.55
2018-11-12T22:05:42.915Z,102225.00
2018-11-12T22:08:18.994Z,102225.72
2018-11-12T22:10:55.091Z,102229.89
2018-11-12T22:13:30.986Z,102225.91
2018-11-12T22:16:07.268Z,102226.89
2018-11-12T22:18:43.893Z,102221.86
2018-11-12T22:21:19.941Z,102227.58
2018-11-12T22:23:56.269Z,102230.37
2018-11-12T22:26:32.089Z,102231.82
2018-11-12T22:29:07.730Z,102232.88
2018-11-12T22:31:43.492Z,102235.03
2018-11-12T22:34:19.837Z,102234.06
2018-11-12T22:36:55.485Z,102233.98
2018-11-12T22:39:31.496Z,102232.27
2018-11-12T22:42:08.086Z,102240.88
2018-11-12T22:44:44.276Z,102242.80
2018-11-12T22:47:20.999Z,102248.29
2018-11-12T22:49:57.646Z,102253.02
2018-11-12T22:52:31.796Z,102251.58
2018-11-12T22:55:07.931Z,102249.50
2018-11-12T22:57:44.091Z,102256.09
2018-11-12T23:00:27.422Z,102248.38
2018-11-12T23:03:02.220Z,102246.56
2018-11-12T23:07:59.092Z,102253.27
2018-11-12T23:10:35.138Z,102249.07
2018-11-12T23:13:11.132Z,102255.41
2018-11-12T23:15:47.274Z,102256.02
2018-11-12T23:22:56.418Z,102252.86
2018-11-12T23:25:32.644Z,102247.84
2018-11-12T23:28:08.424Z,102251.20
2018-11-12T23:30:44.282Z,102242.38
2018-11-12T23:33:20.125Z,102242.27
2018-11-12T23:35:56.093Z,102240.61
2018-11-12T23:38:32.274Z,102243.81
2018-11-12T23:42:39.982Z,102251.11
2018-11-12T23:45:15.836Z,102250.06
2018-11-12T23:47:51.865Z,102258.28
2018-11-12T23:50:27.850Z,102256.02
2018-11-12T23:53:03.926Z,102254.61
2018-11-12T23:56:30.092Z,102253.91
2018-11-12T23:59:05.745Z,102262.56
